sensor_id;sensor_type;location;lat;lon;timestamp;temperature;humidity
18384;DHT22;9318;48.644;9.456;2022-12-29T00:00:08;9.30;99.90
18384;DHT22;9318;48.644;9.456;2022-12-29T00:02:37;9.30;99.90
18384;DHT22;9318;48.644;9.456;2022-12-29T00:05:05;9.30;99.90
18384;DHT22;9318;48.644;9.456;2022-12-29T00:07:34;9.30;99.90
18384;DHT22;9318;48.644;9.456;2022-12-29T00:10:01;9.30;99.90
18384;DHT22;9318;48.644;9.456;2022-12-29T00:12:28;9.40;99.90
18384;DHT22;9318;48.644;9.456;2022-12-29T00:15:15;9.40;99.90
18384;DHT22;9318;48.644;9.456;2022-12-29T00:18:03;9.40;99.90
18384;DHT22;9318;48.644;9.456;2022-12-29T00:20:34;9.40;99.90
18384;DHT22;9318;48.644;9.456;2022-12-29T00:23:21;9.40;99.90
18384;DHT22;9318;48.644;9.456;2022-12-29T00:26:15;9.40;99.90
18384;DHT22;9318;48.644;9.456;2022-12-29T00:29:00;9.40;99.90
18384;DHT22;9318;48.644;9.456;2022-12-29T00:31:45;9.40;99.90
18384;DHT22;9318;48.644;9.456;2022-12-29T00:34:29;9.40;99.90
18384;DHT22;9318;48.644;9.456;2022-12-29T00:37:13;9.50;99.90
18384;DHT22;9318;48.644;9.456;2022-12-29T00:39:42;9.60;99.90
18384;DHT22;9318;48.644;9.456;2022-12-29T00:42:26;9.70;99.90
18384;DHT22;9318;48.644;9.456;2022-12-29T00:45:11;9.80;99.90
18384;DHT22;9318;48.644;9.456;2022-12-29T00:47:38;9.90;99.90
18384;DHT22;9318;48.644;9.456;2022-12-29T00:50:06;9.90;99.90
18384;DHT22;9318;48.644;9.456;2022-12-29T00:52:32;9.90;99.90
18384;DHT22;9318;48.644;9.456;2022-12-29T00:55:01;9.90;99.90
18384;DHT22;9318;48.644;9.456;2022-12-29T00:57:28;9.90;99.90
18384;DHT22;9318;48.644;9.456;2022-12-29T00:59:56;9.90;99.90
18384;DHT22;9318;48.644;9.456;2022-12-29T01:02:23;9.90;99.90
18384;DHT22;9318;48.644;9.456;2022-12-29T01:04:50;9.90;99.90
18384;DHT22;9318;48.644;9.456;2022-12-29T01:07:18;9.80;99.90
18384;DHT22;9318;48.644;9.456;2022-12-29T01:09:45;9.80;99.90
18384;DHT22;9318;48.644;9.456;2022-12-29T01:12:33;9.70;99.90
18384;DHT22;9318;48.644;9.456;2022-12-29T01:15:12;9.70;99.90
18384;DHT22;9318;48.644;9.456;2022-12-29T01:17:40;9.60;99.90
18384;DHT22;9318;48.644;9.456;2022-12-29T01:20:08;9.60;99.90
18384;DHT22;9318;48.644;9.456;2022-12-29T01:22:36;9.60;99.90
18384;DHT22;9318;48.644;9.456;2022-12-29T01:25:04;9.60;99.90
18384;DHT22;9318;48.644;9.456;2022-12-29T01:27:32;9.70;99.90
18384;DHT22;9318;48.644;9.456;2022-12-29T01:29:59;9.70;99.90
18384;DHT22;9318;48.644;9.456;2022-12-29T01:32:27;9.70;99.90
18384;DHT22;9318;48.644;9.456;2022-12-29T01:34:54;9.70;99.90
18384;DHT22;9318;48.644;9.456;2022-12-29T01:37:21;9.70;99.90
18384;DHT22;9318;48.644;9.456;2022-12-29T01:39:48;9.70;99.90
18384;DHT22;9318;48.644;9.456;2022-12-29T01:42:17;9.60;99.90
18384;DHT22;9318;48.644;9.456;2022-12-29T01:44:52;9.60;99.90
18384;DHT22;9318;48.644;9.456;2022-12-29T01:47:29;9.50;99.90
18384;DHT22;9318;48.644;9.456;2022-12-29T01:50:00;9.50;99.90
18384;DHT22;9318;48.644;9.456;2022-12-29T01:52:31;9.50;99.90
18384;DHT22;9318;48.644;9.456;2022-12-29T01:55:00;9.50;99.90
18384;DHT22;9318;48.644;9.456;2022-12-29T01:57:32;9.50;99.90
18384;DHT22;9318;48.644;9.456;2022-12-29T02:00:06;9.40;99.90
18384;DHT22;9318;48.644;9.456;2022-12-29T02:02:34;9.30;99.90
18384;DHT22;9318;48.644;9.456;2022-12-29T02:05:06;9.30;99.90
18384;DHT22;9318;48.644;9.456;2022-12-29T02:07:35;9.20;99.90
18384;DHT22;9318;48.644;9.456;2022-12-29T02:10:03;9.20;99.90
18384;DHT22;9318;48.644;9.456;2022-12-29T02:12:30;9.10;99.90
18384;DHT22;9318;48.644;9.456;2022-12-29T02:15:02;9.10;99.90
18384;DHT22;9318;48.644;9.456;2022-12-29T02:17:43;9.00;99.90
18384;DHT22;9318;48.644;9.456;2022-12-29T02:24:01;9.00;99.90
18384;DHT22;9318;48.644;9.456;2022-12-29T02:27:04;8.90;99.90
18384;DHT22;9318;48.644;9.456;2022-12-29T02:30:03;8.90;99.90
18384;DHT22;9318;48.644;9.456;2022-12-29T02:32:37;8.80;99.90
18384;DHT22;9318;48.644;9.456;2022-12-29T02:35:12;8.90;99.90
18384;DHT22;9318;48.644;9.456;2022-12-29T02:37:43;8.80;99.90
18384;DHT22;9318;48.644;9.456;2022-12-29T02:40:22;8.80;99.90
18384;DHT22;9318;48.644;9.456;2022-12-29T02:42:55;8.80;99.90
18384;DHT22;9318;48.644;9.456;2022-12-29T02:45:29;8.70;99.90
18384;DHT22;9318;48.644;9.456;2022-12-29T02:48:04;8.80;99.90
18384;DHT22;9318;48.644;9.456;2022-12-29T02:50:40;8.80;99.90
18384;DHT22;9318;48.644;9.456;2022-12-29T02:53:13;9.00;99.90
18384;DHT22;9318;48.644;9.456;2022-12-29T02:55:48;9.10;99.90
18384;DHT22;9318;48.644;9.456;2022-12-29T02:58:18;9.30;99.90
18384;DHT22;9318;48.644;9.456;2022-12-29T03:00:58;9.50;99.90
18384;DHT22;9318;48.644;9.456;2022-12-29T03:03:36;9.60;99.90
18384;DHT22;9318;48.644;9.456;2022-12-29T03:06:21;9.70;99.90
18384;DHT22;9318;48.644;9.456;2022-12-29T03:08:57;9.80;99.90
18384;DHT22;9318;48.644;9.456;2022-12-29T03:11:30;10.00;99.90
18384;DHT22;9318;48.644;9.456;2022-12-29T03:14:26;10.10;99.90
18384;DHT22;9318;48.644;9.456;2022-12-29T03:17:18;10.20;99.90
18384;DHT22;9318;48.644;9.456;2022-12-29T03:19:51;10.10;99.90
18384;DHT22;9318;48.644;9.456;2022-12-29T03:22:24;10.10;99.90
18384;DHT22;9318;48.644;9.456;2022-12-29T03:25:03;10.10;99.90
18384;DHT22;9318;48.644;9.456;2022-12-29T03:27:34;10.10;99.90
18384;DHT22;9318;48.644;9.456;2022-12-29T03:30:05;10.10;99.90
18384;DHT22;9318;48.644;9.456;2022-12-29T03:32:37;10.00;99.90
18384;DHT22;9318;48.644;9.456;2022-12-29T03:35:09;10.00;99.90
18384;DHT22;9318;48.644;9.456;2022-12-29T03:40:47;9.90;99.90
18384;DHT22;9318;48.644;9.456;2022-12-29T03:43:17;9.90;99.90
18384;DHT22;9318;48.644;9.456;2022-12-29T03:45:44;9.90;99.90
18384;DHT22;9318;48.644;9.456;2022-12-29T03:48:11;10.00;99.90
18384;DHT22;9318;48.644;9.456;2022-12-29T03:50:40;10.00;99.90
18384;DHT22;9318;48.644;9.456;2022-12-29T03:53:07;10.20;99.90
18384;DHT22;9318;48.644;9.456;2022-12-29T03:55:35;10.30;99.90
18384;DHT22;9318;48.644;9.456;2022-12-29T03:58:02;10.30;99.90
18384;DHT22;9318;48.644;9.456;2022-12-29T04:00:29;10.40;99.90
18384;DHT22;9318;48.644;9.456;2022-12-29T04:02:56;10.40;99.90
18384;DHT22;9318;48.644;9.456;2022-12-29T04:05:23;10.40;99.90
18384;DHT22;9318;48.644;9.456;2022-12-29T04:07:52;10.50;99.90
18384;DHT22;9318;48.644;9.456;2022-12-29T04:10:19;10.50;99.90
18384;DHT22;9318;48.644;9.456;2022-12-29T04:12:46;10.60;99.90
18384;DHT22;9318;48.644;9.456;2022-12-29T04:15:13;10.70;99.90
18384;DHT22;9318;48.644;9.456;2022-12-29T04:17:40;10.70;99.90
18384;DHT22;9318;48.644;9.456;2022-12-29T04:20:08;10.70;99.90
18384;DHT22;9318;48.644;9.456;2022-12-29T04:22:59;10.70;99.90
18384;DHT22;9318;48.644;9.456;2022-12-29T04:25:26;10.70;99.90
18384;DHT22;9318;48.644;9.456;2022-12-29T04:27:53;10.60;99.90
18384;DHT22;9318;48.644;9.456;2022-12-29T04:30:20;10.60;99.90
18384;DHT22;9318;48.644;9.456;2022-12-29T04:32:48;10.60;99.90
18384;DHT22;9318;48.644;9.456;2022-12-29T04:35:15;10.60;99.90
18384;DHT22;9318;48.644;9.456;2022-12-29T04:37:42;10.60;99.90
18384;DHT22;9318;48.644;9.456;2022-12-29T04:40:11;10.50;99.90
18384;DHT22;9318;48.644;9.456;2022-12-29T04:42:39;10.60;99.90
18384;DHT22;9318;48.644;9.456;2022-12-29T04:45:07;10.60;99.90
18384;DHT22;9318;48.644;9.456;2022-12-29T04:47:34;10.50;99.90
18384;DHT22;9318;48.644;9.456;2022-12-29T04:50:02;10.50;99.90
18384;DHT22;9318;48.644;9.456;2022-12-29T04:52:29;10.50;99.90
18384;DHT22;9318;48.644;9.456;2022-12-29T04:54:56;10.40;99.90
18384;DHT22;9318;48.644;9.456;2022-12-29T04:57:25;10.40;99.90
18384;DHT22;9318;48.644;9.456;2022-12-29T04:59:52;10.40;99.90
18384;DHT22;9318;48.644;9.456;2022-12-29T05:02:19;10.30;99.90
18384;DHT22;9318;48.644;9.456;2022-12-29T05:04:47;10.30;99.90
18384;DHT22;9318;48.644;9.456;2022-12-29T05:07:14;10.20;99.90
18384;DHT22;9318;48.644;9.456;2022-12-29T05:09:41;10.20;99.90
18384;DHT22;9318;48.644;9.456;2022-12-29T05:12:08;10.20;99.90
18384;DHT22;9318;48.644;9.456;2022-12-29T05:14:37;10.20;99.90
18384;DHT22;9318;48.644;9.456;2022-12-29T05:17:04;10.20;99.90
18384;DHT22;9318;48.644;9.456;2022-12-29T05:19:31;10.10;99.90
18384;DHT22;9318;48.644;9.456;2022-12-29T05:21:59;10.10;99.90
18384;DHT22;9318;48.644;9.456;2022-12-29T05:24:26;10.00;99.90
18384;DHT22;9318;48.644;9.456;2022-12-29T05:26:53;10.00;99.90
18384;DHT22;9318;48.644;9.456;2022-12-29T05:29:20;10.00;99.90
18384;DHT22;9318;48.644;9.456;2022-12-29T05:31:49;9.90;99.90
18384;DHT22;9318;48.644;9.456;2022-12-29T05:34:16;9.90;99.90
18384;DHT22;9318;48.644;9.456;2022-12-29T05:36:43;10.00;99.90
18384;DHT22;9318;48.644;9.456;2022-12-29T05:39:11;10.00;99.90
18384;DHT22;9318;48.644;9.456;2022-12-29T05:41:38;10.00;99.90
18384;DHT22;9318;48.644;9.456;2022-12-29T05:44:05;10.00;99.90
18384;DHT22;9318;48.644;9.456;2022-12-29T05:46:33;10.10;99.90
18384;DHT22;9318;48.644;9.456;2022-12-29T05:49:01;10.10;99.90
18384;DHT22;9318;48.644;9.456;2022-12-29T05:51:28;10.10;99.90
18384;DHT22;9318;48.644;9.456;2022-12-29T05:53:56;10.00;99.90
18384;DHT22;9318;48.644;9.456;2022-12-29T05:56:23;10.00;99.90
18384;DHT22;9318;48.644;9.456;2022-12-29T05:58:50;9.90;99.90
18384;DHT22;9318;48.644;9.456;2022-12-29T06:01:17;9.80;99.90
18384;DHT22;9318;48.644;9.456;2022-12-29T06:03:44;9.80;99.90
18384;DHT22;9318;48.644;9.456;2022-12-29T06:06:13;9.80;99.90
18384;DHT22;9318;48.644;9.456;2022-12-29T06:08:40;9.70;99.90
18384;DHT22;9318;48.644;9.456;2022-12-29T06:11:07;9.70;99.90
18384;DHT22;9318;48.644;9.456;2022-12-29T06:13:34;9.60;99.90
18384;DHT22;9318;48.644;9.456;2022-12-29T06:16:01;9.60;99.90
18384;DHT22;9318;48.644;9.456;2022-12-29T06:18:28;9.60;99.90
18384;DHT22;9318;48.644;9.456;2022-12-29T06:20:59;9.50;99.90
18384;DHT22;9318;48.644;9.456;2022-12-29T06:23:28;9.50;99.90
18384;DHT22;9318;48.644;9.456;2022-12-29T06:25:55;9.60;99.90
18384;DHT22;9318;48.644;9.456;2022-12-29T06:28:23;9.60;99.90
18384;DHT22;9318;48.644;9.456;2022-12-29T06:30:50;9.60;99.90
18384;DHT22;9318;48.644;9.456;2022-12-29T06:33:17;9.60;99.90
18384;DHT22;9318;48.644;9.456;2022-12-29T06:35:44;9.60;99.90
18384;DHT22;9318;48.644;9.456;2022-12-29T06:38:12;9.60;99.90
18384;DHT22;9318;48.644;9.456;2022-12-29T06:40:41;9.60;99.90
18384;DHT22;9318;48.644;9.456;2022-12-29T06:43:10;9.60;99.90
18384;DHT22;9318;48.644;9.456;2022-12-29T06:45:38;9.70;99.90
18384;DHT22;9318;48.644;9.456;2022-12-29T06:48:06;9.70;99.90
18384;DHT22;9318;48.644;9.456;2022-12-29T06:50:34;9.70;99.90
18384;DHT22;9318;48.644;9.456;2022-12-29T06:53:01;9.80;99.90
18384;DHT22;9318;48.644;9.456;2022-12-29T06:55:29;9.70;99.90
18384;DHT22;9318;48.644;9.456;2022-12-29T06:57:57;9.80;99.90
18384;DHT22;9318;48.644;9.456;2022-12-29T07:00:26;9.80;99.90
18384;DHT22;9318;48.644;9.456;2022-12-29T07:02:55;9.90;99.90
18384;DHT22;9318;48.644;9.456;2022-12-29T07:05:23;9.90;99.90
18384;DHT22;9318;48.644;9.456;2022-12-29T07:07:53;9.90;99.90
18384;DHT22;9318;48.644;9.456;2022-12-29T07:10:20;9.90;99.90
18384;DHT22;9318;48.644;9.456;2022-12-29T07:12:48;9.90;99.90
18384;DHT22;9318;48.644;9.456;2022-12-29T07:15:16;9.80;99.90
18384;DHT22;9318;48.644;9.456;2022-12-29T07:17:43;9.90;99.90
18384;DHT22;9318;48.644;9.456;2022-12-29T07:20:11;9.90;99.90
18384;DHT22;9318;48.644;9.456;2022-12-29T07:22:38;9.80;99.90
18384;DHT22;9318;48.644;9.456;2022-12-29T07:25:06;9.80;99.90
18384;DHT22;9318;48.644;9.456;2022-12-29T07:27:33;9.80;99.90
18384;DHT22;9318;48.644;9.456;2022-12-29T07:30:00;9.80;99.90
18384;DHT22;9318;48.644;9.456;2022-12-29T07:32:32;9.80;99.90
18384;DHT22;9318;48.644;9.456;2022-12-29T07:34:59;9.70;99.90
18384;DHT22;9318;48.644;9.456;2022-12-29T07:37:26;9.70;99.90
18384;DHT22;9318;48.644;9.456;2022-12-29T07:39:54;9.70;99.90
18384;DHT22;9318;48.644;9.456;2022-12-29T07:42:21;9.60;99.90
18384;DHT22;9318;48.644;9.456;2022-12-29T07:44:48;9.60;99.90
18384;DHT22;9318;48.644;9.456;2022-12-29T07:47:15;9.60;99.90
18384;DHT22;9318;48.644;9.456;2022-12-29T07:49:44;9.60;99.90
18384;DHT22;9318;48.644;9.456;2022-12-29T07:52:11;9.60;99.90
18384;DHT22;9318;48.644;9.456;2022-12-29T07:54:38;9.70;99.90
18384;DHT22;9318;48.644;9.456;2022-12-29T07:57:06;9.80;99.90
18384;DHT22;9318;48.644;9.456;2022-12-29T07:59:33;9.80;99.90
18384;DHT22;9318;48.644;9.456;2022-12-29T08:02:01;9.90;99.90
18384;DHT22;9318;48.644;9.456;2022-12-29T08:04:28;9.90;99.90
18384;DHT22;9318;48.644;9.456;2022-12-29T08:06:57;9.90;99.90
18384;DHT22;9318;48.644;9.456;2022-12-29T08:09:24;10.00;99.90
18384;DHT22;9318;48.644;9.456;2022-12-29T08:11:51;10.00;99.90
18384;DHT22;9318;48.644;9.456;2022-12-29T08:14:18;10.10;99.90
18384;DHT22;9318;48.644;9.456;2022-12-29T08:16:46;10.10;99.90
18384;DHT22;9318;48.644;9.456;2022-12-29T08:19:13;10.20;99.90
18384;DHT22;9318;48.644;9.456;2022-12-29T08:21:41;10.30;99.90
18384;DHT22;9318;48.644;9.456;2022-12-29T08:24:09;10.40;99.90
18384;DHT22;9318;48.644;9.456;2022-12-29T08:26:36;10.40;99.90
18384;DHT22;9318;48.644;9.456;2022-12-29T08:29:04;10.50;99.90
18384;DHT22;9318;48.644;9.456;2022-12-29T08:31:31;10.60;99.90
18384;DHT22;9318;48.644;9.456;2022-12-29T08:33:59;10.60;99.90
18384;DHT22;9318;48.644;9.456;2022-12-29T08:36:28;10.70;99.90
18384;DHT22;9318;48.644;9.456;2022-12-29T08:38:56;10.70;99.90
18384;DHT22;9318;48.644;9.456;2022-12-29T08:41:24;10.80;99.90
18384;DHT22;9318;48.644;9.456;2022-12-29T08:43:51;10.80;99.90
18384;DHT22;9318;48.644;9.456;2022-12-29T08:46:19;10.80;99.90
18384;DHT22;9318;48.644;9.456;2022-12-29T08:48:46;10.80;99.90
18384;DHT22;9318;48.644;9.456;2022-12-29T08:51:13;10.80;99.90
18384;DHT22;9318;48.644;9.456;2022-12-29T08:53:40;10.80;99.90
18384;DHT22;9318;48.644;9.456;2022-12-29T08:56:09;10.80;99.90
18384;DHT22;9318;48.644;9.456;2022-12-29T08:58:38;10.80;99.90
18384;DHT22;9318;48.644;9.456;2022-12-29T09:01:06;10.80;99.90
18384;DHT22;9318;48.644;9.456;2022-12-29T09:03:33;10.80;99.90
18384;DHT22;9318;48.644;9.456;2022-12-29T09:06:00;10.80;99.90
18384;DHT22;9318;48.644;9.456;2022-12-29T09:08:27;10.80;99.90
18384;DHT22;9318;48.644;9.456;2022-12-29T09:10:54;10.80;99.90
18384;DHT22;9318;48.644;9.456;2022-12-29T09:13:22;10.80;99.90
18384;DHT22;9318;48.644;9.456;2022-12-29T09:15:58;10.90;99.90
18384;DHT22;9318;48.644;9.456;2022-12-29T09:18:25;10.90;99.90
18384;DHT22;9318;48.644;9.456;2022-12-29T09:20:56;10.90;99.90
18384;DHT22;9318;48.644;9.456;2022-12-29T09:23:24;11.00;99.90
18384;DHT22;9318;48.644;9.456;2022-12-29T09:25:51;11.10;99.90
18384;DHT22;9318;48.644;9.456;2022-12-29T09:28:19;11.20;99.90
18384;DHT22;9318;48.644;9.456;2022-12-29T09:30:46;11.30;99.90
18384;DHT22;9318;48.644;9.456;2022-12-29T09:33:15;11.40;99.90
18384;DHT22;9318;48.644;9.456;2022-12-29T09:35:43;11.50;99.90
18384;DHT22;9318;48.644;9.456;2022-12-29T09:38:11;11.70;99.90
18384;DHT22;9318;48.644;9.456;2022-12-29T09:40:39;11.70;99.90
18384;DHT22;9318;48.644;9.456;2022-12-29T09:43:22;11.80;99.90
18384;DHT22;9318;48.644;9.456;2022-12-29T09:45:57;11.90;99.90
18384;DHT22;9318;48.644;9.456;2022-12-29T09:48:31;11.90;99.90
18384;DHT22;9318;48.644;9.456;2022-12-29T09:51:05;11.90;99.90
18384;DHT22;9318;48.644;9.456;2022-12-29T09:53:38;11.90;99.90
18384;DHT22;9318;48.644;9.456;2022-12-29T09:56:12;11.90;99.90
18384;DHT22;9318;48.644;9.456;2022-12-29T09:58:44;11.90;99.90
18384;DHT22;9318;48.644;9.456;2022-12-29T10:01:20;11.90;99.90
18384;DHT22;9318;48.644;9.456;2022-12-29T10:03:51;12.00;99.90
18384;DHT22;9318;48.644;9.456;2022-12-29T10:06:24;12.20;99.90
18384;DHT22;9318;48.644;9.456;2022-12-29T10:09:00;12.30;99.90
18384;DHT22;9318;48.644;9.456;2022-12-29T10:11:38;12.30;99.90
18384;DHT22;9318;48.644;9.456;2022-12-29T10:14:22;12.40;99.90
18384;DHT22;9318;48.644;9.456;2022-12-29T10:16:58;12.40;99.90
18384;DHT22;9318;48.644;9.456;2022-12-29T10:19:46;12.50;99.90
18384;DHT22;9318;48.644;9.456;2022-12-29T10:22:29;12.50;99.90
18384;DHT22;9318;48.644;9.456;2022-12-29T10:25:00;12.50;99.90
18384;DHT22;9318;48.644;9.456;2022-12-29T10:27:32;12.40;99.90
18384;DHT22;9318;48.644;9.456;2022-12-29T10:30:01;12.40;99.90
18384;DHT22;9318;48.644;9.456;2022-12-29T10:32:33;12.40;99.90
18384;DHT22;9318;48.644;9.456;2022-12-29T10:35:06;12.30;99.90
18384;DHT22;9318;48.644;9.456;2022-12-29T10:37:43;12.30;99.90
18384;DHT22;9318;48.644;9.456;2022-12-29T10:40:18;12.30;99.90
18384;DHT22;9318;48.644;9.456;2022-12-29T10:42:50;12.30;99.90
18384;DHT22;9318;48.644;9.456;2022-12-29T10:45:19;12.20;99.90
18384;DHT22;9318;48.644;9.456;2022-12-29T10:47:53;12.20;99.90
18384;DHT22;9318;48.644;9.456;2022-12-29T10:50:25;12.20;99.90
18384;DHT22;9318;48.644;9.456;2022-12-29T10:52:56;12.10;99.90
18384;DHT22;9318;48.644;9.456;2022-12-29T10:55:28;12.10;99.90
18384;DHT22;9318;48.644;9.456;2022-12-29T10:58:00;12.10;99.90
18384;DHT22;9318;48.644;9.456;2022-12-29T11:00:31;12.10;99.90
18384;DHT22;9318;48.644;9.456;2022-12-29T11:03:37;12.10;99.90
18384;DHT22;9318;48.644;9.456;2022-12-29T11:06:12;12.20;99.90
18384;DHT22;9318;48.644;9.456;2022-12-29T11:08:52;12.30;99.90
18384;DHT22;9318;48.644;9.456;2022-12-29T11:11:25;12.40;99.90
18384;DHT22;9318;48.644;9.456;2022-12-29T11:13:58;12.50;99.90
18384;DHT22;9318;48.644;9.456;2022-12-29T11:16:30;12.60;99.90
18384;DHT22;9318;48.644;9.456;2022-12-29T11:19:00;12.60;99.90
18384;DHT22;9318;48.644;9.456;2022-12-29T11:21:32;12.70;99.90
18384;DHT22;9318;48.644;9.456;2022-12-29T11:24:01;12.80;99.90
18384;DHT22;9318;48.644;9.456;2022-12-29T11:26:29;12.90;99.90
18384;DHT22;9318;48.644;9.456;2022-12-29T11:29:20;13.00;99.90
18384;DHT22;9318;48.644;9.456;2022-12-29T11:31:49;13.20;99.90
18384;DHT22;9318;48.644;9.456;2022-12-29T11:34:21;13.20;99.90
18384;DHT22;9318;48.644;9.456;2022-12-29T11:36:52;13.20;99.90
18384;DHT22;9318;48.644;9.456;2022-12-29T11:39:30;13.20;99.90
18384;DHT22;9318;48.644;9.456;2022-12-29T11:42:00;13.20;99.90
18384;DHT22;9318;48.644;9.456;2022-12-29T11:44:35;13.20;99.90
18384;DHT22;9318;48.644;9.456;2022-12-29T11:47:04;13.20;99.90
18384;DHT22;9318;48.644;9.456;2022-12-29T11:49:32;13.20;99.90
18384;DHT22;9318;48.644;9.456;2022-12-29T11:52:00;13.10;99.90
18384;DHT22;9318;48.644;9.456;2022-12-29T11:54:31;13.10;99.90
18384;DHT22;9318;48.644;9.456;2022-12-29T11:57:09;13.10;99.90
18384;DHT22;9318;48.644;9.456;2022-12-29T11:59:41;13.10;99.90
18384;DHT22;9318;48.644;9.456;2022-12-29T12:05:35;13.20;99.90
18384;DHT22;9318;48.644;9.456;2022-12-29T12:08:11;13.30;99.90
18384;DHT22;9318;48.644;9.456;2022-12-29T12:10:45;13.20;99.90
18384;DHT22;9318;48.644;9.456;2022-12-29T12:13:21;13.10;99.90
18384;DHT22;9318;48.644;9.456;2022-12-29T12:15:56;13.00;99.90
18384;DHT22;9318;48.644;9.456;2022-12-29T12:18:33;12.90;99.90
18384;DHT22;9318;48.644;9.456;2022-12-29T12:21:07;12.90;99.90
18384;DHT22;9318;48.644;9.456;2022-12-29T12:23:44;12.80;99.90
18384;DHT22;9318;48.644;9.456;2022-12-29T12:26:16;12.70;99.90
18384;DHT22;9318;48.644;9.456;2022-12-29T12:28:51;12.70;99.90
18384;DHT22;9318;48.644;9.456;2022-12-29T12:31:27;12.80;99.90
18384;DHT22;9318;48.644;9.456;2022-12-29T12:34:06;12.70;99.90
18384;DHT22;9318;48.644;9.456;2022-12-29T12:40:07;12.70;99.90
18384;DHT22;9318;48.644;9.456;2022-12-29T12:42:42;12.70;99.90
18384;DHT22;9318;48.644;9.456;2022-12-29T12:45:37;12.70;99.90
18384;DHT22;9318;48.644;9.456;2022-12-29T12:48:22;12.70;99.90
18384;DHT22;9318;48.644;9.456;2022-12-29T12:50:58;12.70;99.90
18384;DHT22;9318;48.644;9.456;2022-12-29T12:53:43;12.90;99.90
18384;DHT22;9318;48.644;9.456;2022-12-29T12:59:18;13.10;99.90
18384;DHT22;9318;48.644;9.456;2022-12-29T13:01:56;13.10;99.90
18384;DHT22;9318;48.644;9.456;2022-12-29T13:04:37;13.20;99.90
18384;DHT22;9318;48.644;9.456;2022-12-29T13:07:16;13.10;99.90
18384;DHT22;9318;48.644;9.456;2022-12-29T13:09:53;12.90;99.90
18384;DHT22;9318;48.644;9.456;2022-12-29T13:12:32;12.90;99.90
18384;DHT22;9318;48.644;9.456;2022-12-29T13:15:09;12.90;99.90
18384;DHT22;9318;48.644;9.456;2022-12-29T13:17:44;12.90;99.90
18384;DHT22;9318;48.644;9.456;2022-12-29T13:20:20;12.70;99.90
18384;DHT22;9318;48.644;9.456;2022-12-29T13:22:56;12.60;99.90
18384;DHT22;9318;48.644;9.456;2022-12-29T13:25:31;12.60;99.90
18384;DHT22;9318;48.644;9.456;2022-12-29T13:28:06;12.60;99.90
18384;DHT22;9318;48.644;9.456;2022-12-29T13:30:40;12.50;99.90
18384;DHT22;9318;48.644;9.456;2022-12-29T13:33:19;12.60;99.90
18384;DHT22;9318;48.644;9.456;2022-12-29T13:35:56;12.60;99.90
18384;DHT22;9318;48.644;9.456;2022-12-29T13:38:29;12.60;99.90
18384;DHT22;9318;48.644;9.456;2022-12-29T13:41:00;12.60;99.90
18384;DHT22;9318;48.644;9.456;2022-12-29T13:43:32;12.60;99.90
18384;DHT22;9318;48.644;9.456;2022-12-29T13:46:04;12.60;99.90
18384;DHT22;9318;48.644;9.456;2022-12-29T13:48:41;12.60;99.90
18384;DHT22;9318;48.644;9.456;2022-12-29T13:51:11;12.60;99.90
18384;DHT22;9318;48.644;9.456;2022-12-29T13:53:49;12.60;99.90
18384;DHT22;9318;48.644;9.456;2022-12-29T13:56:24;12.70;99.90
18384;DHT22;9318;48.644;9.456;2022-12-29T13:58:58;12.90;99.90
18384;DHT22;9318;48.644;9.456;2022-12-29T14:01:30;13.00;99.90
18384;DHT22;9318;48.644;9.456;2022-12-29T14:04:00;13.10;99.90
18384;DHT22;9318;48.644;9.456;2022-12-29T14:06:30;13.20;99.90
18384;DHT22;9318;48.644;9.456;2022-12-29T14:08:59;13.20;99.90
18384;DHT22;9318;48.644;9.456;2022-12-29T14:11:32;13.10;99.90
18384;DHT22;9318;48.644;9.456;2022-12-29T14:14:11;13.00;99.90
18384;DHT22;9318;48.644;9.456;2022-12-29T14:16:39;12.90;99.90
18384;DHT22;9318;48.644;9.456;2022-12-29T14:19:14;12.90;99.90
18384;DHT22;9318;48.644;9.456;2022-12-29T14:21:51;12.90;99.90
18384;DHT22;9318;48.644;9.456;2022-12-29T14:24:41;12.90;99.90
18384;DHT22;9318;48.644;9.456;2022-12-29T14:30:56;12.80;99.90
18384;DHT22;9318;48.644;9.456;2022-12-29T14:33:24;12.80;99.90
18384;DHT22;9318;48.644;9.456;2022-12-29T14:35:53;12.80;99.90
18384;DHT22;9318;48.644;9.456;2022-12-29T14:38:30;12.70;99.90
18384;DHT22;9318;48.644;9.456;2022-12-29T14:41:24;12.70;99.90
18384;DHT22;9318;48.644;9.456;2022-12-29T14:43:56;12.60;99.90
18384;DHT22;9318;48.644;9.456;2022-12-29T14:46:25;12.50;99.90
18384;DHT22;9318;48.644;9.456;2022-12-29T14:49:15;12.50;99.90
18384;DHT22;9318;48.644;9.456;2022-12-29T14:51:44;12.50;99.90
18384;DHT22;9318;48.644;9.456;2022-12-29T14:54:41;12.50;99.90
18384;DHT22;9318;48.644;9.456;2022-12-29T15:00:17;12.30;99.90
18384;DHT22;9318;48.644;9.456;2022-12-29T15:02:49;12.30;99.90
18384;DHT22;9318;48.644;9.456;2022-12-29T15:05:34;12.20;99.90
18384;DHT22;9318;48.644;9.456;2022-12-29T15:08:03;12.20;99.90
18384;DHT22;9318;48.644;9.456;2022-12-29T15:10:39;12.10;99.90
18384;DHT22;9318;48.644;9.456;2022-12-29T15:13:16;12.10;99.90
18384;DHT22;9318;48.644;9.456;2022-12-29T15:15:43;11.90;99.90
18384;DHT22;9318;48.644;9.456;2022-12-29T15:18:23;11.90;99.90
18384;DHT22;9318;48.644;9.456;2022-12-29T15:20:52;11.80;99.90
18384;DHT22;9318;48.644;9.456;2022-12-29T15:23:21;11.80;99.90
18384;DHT22;9318;48.644;9.456;2022-12-29T15:25:52;11.70;99.90
18384;DHT22;9318;48.644;9.456;2022-12-29T15:28:20;11.70;99.90
18384;DHT22;9318;48.644;9.456;2022-12-29T15:30:56;11.60;99.90
18384;DHT22;9318;48.644;9.456;2022-12-29T15:33:27;11.60;99.90
18384;DHT22;9318;48.644;9.456;2022-12-29T15:35:55;11.50;99.90
18384;DHT22;9318;48.644;9.456;2022-12-29T15:38:25;11.50;99.90
18384;DHT22;9318;48.644;9.456;2022-12-29T15:40:53;11.50;99.90
18384;DHT22;9318;48.644;9.456;2022-12-29T15:43:30;11.50;99.90
18384;DHT22;9318;48.644;9.456;2022-12-29T15:46:00;11.40;99.90
18384;DHT22;9318;48.644;9.456;2022-12-29T15:48:30;11.40;99.90
18384;DHT22;9318;48.644;9.456;2022-12-29T15:50:58;11.40;99.90
18384;DHT22;9318;48.644;9.456;2022-12-29T15:53:29;11.30;99.90
18384;DHT22;9318;48.644;9.456;2022-12-29T15:56:00;11.30;99.90
18384;DHT22;9318;48.644;9.456;2022-12-29T15:58:30;11.30;99.90
18384;DHT22;9318;48.644;9.456;2022-12-29T16:00:59;11.30;99.90
18384;DHT22;9318;48.644;9.456;2022-12-29T16:03:32;11.30;99.90
18384;DHT22;9318;48.644;9.456;2022-12-29T16:06:08;11.30;99.90
18384;DHT22;9318;48.644;9.456;2022-12-29T16:08:38;11.20;99.90
18384;DHT22;9318;48.644;9.456;2022-12-29T16:11:16;11.20;99.90
18384;DHT22;9318;48.644;9.456;2022-12-29T16:13:48;11.20;99.90
18384;DHT22;9318;48.644;9.456;2022-12-29T16:16:19;11.20;99.90
18384;DHT22;9318;48.644;9.456;2022-12-29T16:18:50;11.20;99.90
18384;DHT22;9318;48.644;9.456;2022-12-29T16:21:21;11.20;99.90
18384;DHT22;9318;48.644;9.456;2022-12-29T16:23:51;11.20;99.90
18384;DHT22;9318;48.644;9.456;2022-12-29T16:26:21;11.20;99.90
18384;DHT22;9318;48.644;9.456;2022-12-29T16:28:51;11.20;99.90
18384;DHT22;9318;48.644;9.456;2022-12-29T16:31:23;11.20;99.90
18384;DHT22;9318;48.644;9.456;2022-12-29T16:33:53;11.20;99.90
18384;DHT22;9318;48.644;9.456;2022-12-29T16:36:32;11.20;99.90
18384;DHT22;9318;48.644;9.456;2022-12-29T16:39:19;11.20;99.90
18384;DHT22;9318;48.644;9.456;2022-12-29T16:41:48;11.20;99.90
18384;DHT22;9318;48.644;9.456;2022-12-29T16:44:20;11.20;99.90